Christchurch, New Zealand

12:53 AM NZST on September 19, 2014 (GMT +1200)
Christchurch International | Change Station
CLOSE
Current Station
Airport
Location: Christchurch,
Elevation: 125 ft
Nearby Weather Stations

Elev 125 ft 43.48 °S, 172.55 °E | Updated 23 minutes ago

Mostly Cloudy
Mostly Cloudy
50 °F
Feels Like 50 °F
N
6
Wind Variable Wind from NE

Today
High -- | Low -- °F
--% Chance of Precip.
Yesterday
High -- | Low -- °F
Precip. -- in
6:25 AM 6:22 PM
Waning Crescent, 27% visible
Pressure 29.39 in
Visibility 6.2 miles
Clouds Mostly Cloudy 8000 ft
Dew Point 41 °F
Humidity 71%
Rainfall 0.00 in
Snow Depth Not available.
UV 0 out of 12
Pollen Not available.
Air Quality Not available.
Flu Activity Not available.
METAR NZCH 181230Z AUTO 05005KT 9999 BKN080/// 10/05 Q0995 NOSIG

More Conditions Fewer Conditions

Pressure 29.39 in
Visibility 6.2 miles
Clouds Mostly Cloudy 8000 ft
Dew Point 41 °F
Humidity 71%
Rainfall 0.00 in
Snow Depth Not available.
UV 0 out of 12
Pollen Not available.
Air Quality Not available.
Flu Activity Not available.
METAR NZCH 181230Z AUTO 05005KT 9999 BKN080/// 10/05 Q0995 NOSIG

More Conditions Fewer Conditions

10-Day Weather Forecast

Almanac

Astronomy

Sep. 19, 2014 Rise Set
Actual Time 6:25 AM NZST 6:22 PM NZST
Civil Twilight 5:57 AM NZST 6:51 PM NZST
Nautical Twilight 5:23 AM NZST 7:24 PM NZST
Astronomical Twilight 4:50 AM NZST 7:58 PM NZST
Moon 3:24 AM NZST (9/19) 1:39 PM NZST (9/19)
Length of Visible Light 12h 53m
Length of Day
11h 56m
Tomorrow will be 2m 57s longer.
Waning Crescent, 27% of the Moon is Illuminated
Sep 18
Waning Crescent
Sep 24
New
Oct 1
First Quarter
Oct 8
Full
Oct 15
Last Quarter

Yesterday's Extremes

Country Highs Country Lows

Community

WunderPhotos

Upload Photos

1,754,333 photos uploaded!

Nearby

Snow Depth

Not available.

Earthquake Activity

City Distance Mag. Time & Date
No recent earthquake activity has been reported nearby.
Minimum magnitude displayed is 2.5.

Coastal Water Temperatures

Place Temperature
No Stations Reporting

Nearby Weather Stations